Impacts TAF Board
For situational awareness. Not to be used for flight planning purposes.
IDs:

KSEA - Seattle-Tacoma Intl, WA, US

Issued at 2320 UTC 15 Oct 2018
Updated at 0246 UTC 16 Oct 2018
Potential Impact None Slight Moderate High
Time<<17/03Z 17/04Z 17/05Z 17/06Z 17/07Z 17/08Z 17/09Z 17/10Z 17/11Z 17/12Z 17/13Z 17/14Z 17/15Z
Type PRVL PRVL PRVL
VIS >6 >6 >6
CIG -- -- --
Cover FEW FEW FEW
FltCat VFR VFR VFR
WX -- -- --
WDir 10 10 10
WSpd 4 4 4
WGst -- -- --
Raw TAF
KSEA 152320Z 1600/1706 VRB04KT P6SM SCT250
  FM160600 01004KT P6SM FEW250


METAR Board
Radar Display
Forecast Discussion
For situational awareness. Not to be used for flight planning purposes.